Terminal Aerodrome Forecast
Issued by NWS Denver/Boulder, CO

Home | Current Version | Previous Version | Text Only | Print | Product List | Glossary On
Versions: 1 2 3 4 5 6 7 8 9 10 11 12 13 14 15 16 17 18 19 20 21 22 23 24 25 26 27 28 29 30 31 32 33 34 35 36 37 38 39 40 41 42 43 44 45 46
000
FTUS45 KBOU 231433 AAA
TAFDEN
TAF AMD
KDEN 231433Z 2315/2418 09007KT P6SM BKN008 OVC020
      TEMPO 2315/2316 4SM -FZDZ BR BKN005
     FM231600 06012KT P6SM BKN010 OVC060
     FM231900 03014KT P6SM BKN025 OVC060
     FM232100 35018G26KT P6SM BKN025 OVC040
      TEMPO 2322/2401 3SM -SHSN OVC012
     FM240100 01015G23KT 3SM -SN BR SCT008 BKN012 OVC020
      TEMPO 2401/2405 1SM -SN BR BKN005
     FM240900 02009KT P6SM SCT008 OVC015=

USA.gov is the U.S. government's official web portal to all federal, state and local government web resources and services.